createdAt,value
2022-10-02T00:02:05.791Z,19.13
2022-10-02T00:04:40.407Z,19.17
2022-10-02T00:07:11.524Z,19.19
2022-10-02T00:09:46.071Z,19.21
2022-10-02T00:12:18.625Z,19.24
2022-10-02T00:14:53.353Z,19.25
2022-10-02T00:17:27.220Z,19.25
2022-10-02T00:19:55.926Z,19.27
2022-10-02T00:22:42.501Z,19.29
2022-10-02T00:25:18.918Z,19.25
2022-10-02T00:28:12.351Z,19.28
2022-10-02T00:30:56.223Z,19.30
2022-10-02T00:33:33.112Z,19.30
2022-10-02T00:36:12.891Z,19.38
2022-10-02T00:38:51.358Z,19.40
2022-10-02T00:41:53.199Z,19.39
2022-10-02T00:44:30.176Z,19.39
2022-10-02T00:47:04.231Z,19.39
2022-10-02T00:49:50.077Z,19.42
2022-10-02T00:52:41.109Z,19.36
2022-10-02T00:55:32.287Z,19.36
2022-10-02T00:58:13.955Z,19.35
2022-10-02T01:00:48.734Z,19.34
2022-10-02T01:03:23.065Z,19.33
2022-10-02T01:05:51.786Z,19.29
2022-10-02T01:08:19.663Z,19.34
2022-10-02T01:10:51.328Z,19.34
2022-10-02T01:13:19.223Z,19.37
2022-10-02T01:15:53.280Z,19.39
2022-10-02T01:18:22.843Z,19.38
2022-10-02T01:20:52.830Z,19.39
2022-10-02T01:23:28.576Z,19.39
2022-10-02T01:25:58.327Z,19.39
2022-10-02T01:28:26.903Z,19.36
2022-10-02T01:31:00.779Z,19.43
2022-10-02T01:33:28.731Z,19.42
2022-10-02T01:35:56.803Z,19.42
2022-10-02T01:38:25.503Z,19.43
2022-10-02T01:40:57.758Z,19.46
2022-10-02T01:43:29.002Z,19.50
2022-10-02T01:46:16.874Z,19.52
2022-10-02T01:48:51.509Z,19.56
2022-10-02T01:51:32.320Z,19.57
2022-10-02T01:54:12.548Z,19.64
2022-10-02T01:56:49.873Z,19.63
2022-10-02T01:59:29.944Z,19.62
2022-10-02T02:02:10.190Z,19.63
2022-10-02T02:04:44.124Z,19.64
2022-10-02T02:07:18.392Z,19.63
2022-10-02T02:09:56.599Z,19.58
2022-10-02T02:12:37.463Z,19.56
2022-10-02T02:15:11.902Z,19.55
2022-10-02T02:17:48.455Z,19.51
2022-10-02T02:20:19.012Z,19.50
2022-10-02T02:22:49.524Z,19.39
2022-10-02T02:25:19.753Z,19.38
2022-10-02T02:28:06.346Z,19.39
2022-10-02T02:30:37.508Z,19.23
2022-10-02T02:33:10.462Z,19.11
2022-10-02T02:35:42.756Z,19.00
2022-10-02T02:38:15.308Z,18.89
2022-10-02T02:40:45.757Z,18.73
2022-10-02T02:43:21.018Z,18.60
2022-10-02T02:45:54.837Z,18.48
2022-10-02T02:48:26.582Z,18.44
2022-10-02T02:50:58.712Z,18.32
2022-10-02T02:53:32.119Z,18.27
2022-10-02T02:56:02.376Z,18.19
2022-10-02T02:58:35.052Z,18.02
2022-10-02T03:01:02.849Z,18.01
2022-10-02T03:03:30.494Z,17.92
2022-10-02T03:06:04.227Z,17.78
2022-10-02T03:08:35.912Z,17.70
2022-10-02T03:11:12.182Z,17.65
2022-10-02T03:13:56.142Z,17.53
2022-10-02T03:16:38.776Z,17.51
2022-10-02T03:19:31.647Z,17.42
2022-10-02T03:22:10.858Z,17.33
2022-10-02T03:24:47.249Z,17.27
2022-10-02T03:27:20.866Z,17.25
2022-10-02T03:29:57.924Z,17.25
2022-10-02T03:32:28.461Z,17.20
2022-10-02T03:34:57.179Z,17.15
2022-10-02T03:37:25.507Z,17.09
2022-10-02T03:39:53.197Z,17.11
2022-10-02T03:42:25.348Z,17.06
2022-10-02T03:44:54.454Z,17.01
2022-10-02T03:47:22.074Z,17.04
2022-10-02T03:49:49.701Z,17.00
2022-10-02T03:52:19.238Z,16.99
2022-10-02T03:54:49.183Z,16.97
2022-10-02T03:57:20.392Z,16.97
2022-10-02T03:59:53.955Z,16.93
2022-10-02T04:02:33.020Z,16.93
2022-10-02T04:05:08.176Z,16.93
2022-10-02T04:07:40.525Z,16.91
2022-10-02T04:10:30.520Z,16.91
2022-10-02T04:13:04.611Z,16.94
2022-10-02T04:15:43.432Z,16.93
2022-10-02T04:18:21.574Z,16.90
2022-10-02T04:20:53.377Z,16.84
2022-10-02T04:23:26.802Z,16.86
2022-10-02T04:26:00.541Z,16.88
2022-10-02T04:28:37.681Z,16.83
2022-10-02T04:31:10.659Z,16.92
2022-10-02T04:33:40.807Z,16.92
2022-10-02T04:36:25.634Z,16.94
2022-10-02T04:39:11.818Z,16.96
2022-10-02T04:41:56.788Z,16.96
2022-10-02T04:44:40.269Z,16.95
2022-10-02T04:47:30.948Z,16.97
2022-10-02T04:50:19.883Z,16.98
2022-10-02T04:53:09.120Z,17.00
2022-10-02T04:55:52.702Z,17.01
2022-10-02T04:58:24.645Z,17.03
2022-10-02T05:01:01.627Z,17.03
2022-10-02T05:03:43.593Z,17.05
2022-10-02T05:06:28.465Z,17.06
2022-10-02T05:09:12.047Z,17.07
2022-10-02T05:12:02.295Z,17.07
2022-10-02T05:14:47.270Z,17.07
2022-10-02T05:17:37.956Z,17.11
2022-10-02T05:20:35.857Z,17.13
2022-10-02T05:23:17.794Z,17.17
2022-10-02T05:26:14.250Z,17.18
2022-10-02T05:28:57.386Z,17.17
2022-10-02T05:31:35.898Z,17.20
2022-10-02T05:34:22.653Z,17.20
2022-10-02T05:37:08.293Z,17.25
2022-10-02T05:39:45.956Z,17.27
2022-10-02T05:42:21.066Z,17.30
2022-10-02T05:44:54.529Z,17.33
2022-10-02T05:47:28.918Z,17.34
2022-10-02T05:50:00.540Z,17.39
2022-10-02T05:52:36.060Z,17.42
2022-10-02T05:55:15.432Z,17.48
2022-10-02T05:57:48.599Z,17.49
2022-10-02T06:00:30.206Z,17.44
2022-10-02T06:03:10.018Z,17.48
2022-10-02T06:05:46.492Z,17.41
2022-10-02T06:08:17.970Z,17.41
2022-10-02T06:10:51.455Z,17.39
2022-10-02T06:13:25.287Z,17.36
2022-10-02T06:16:01.774Z,17.28
2022-10-02T06:18:33.372Z,17.27
2022-10-02T06:21:05.561Z,17.19
2022-10-02T06:23:39.491Z,17.19
2022-10-02T06:26:13.231Z,17.12
2022-10-02T06:28:43.944Z,17.06
2022-10-02T06:31:18.869Z,17.01
2022-10-02T06:33:46.623Z,17.01
2022-10-02T06:36:37.208Z,16.97
2022-10-02T06:39:23.584Z,16.96
2022-10-02T06:42:07.000Z,16.96
2022-10-02T06:44:42.370Z,16.94
2022-10-02T06:47:24.106Z,16.92
2022-10-02T06:50:11.909Z,16.90
2022-10-02T06:52:47.782Z,16.87
2022-10-02T06:55:32.728Z,16.85
2022-10-02T06:58:19.468Z,16.83
2022-10-02T07:00:53.530Z,16.82
2022-10-02T07:03:44.647Z,16.84
2022-10-02T07:06:19.893Z,16.87
2022-10-02T07:09:05.450Z,16.89
2022-10-02T07:11:46.051Z,16.86
2022-10-02T07:14:30.679Z,16.89
2022-10-02T07:17:13.068Z,16.87
2022-10-02T07:20:09.246Z,16.84
2022-10-02T07:22:59.722Z,16.81
2022-10-02T07:25:48.389Z,16.76
2022-10-02T07:28:27.742Z,16.69
2022-10-02T07:31:04.167Z,16.64
2022-10-02T07:33:48.875Z,16.57
2022-10-02T07:36:30.384Z,16.58
2022-10-02T07:39:15.755Z,16.54
2022-10-02T07:42:18.230Z,16.50
2022-10-02T07:45:04.703Z,16.46
2022-10-02T07:47:57.177Z,16.49
2022-10-02T07:50:35.407Z,16.50
2022-10-02T07:53:13.234Z,16.56
2022-10-02T07:55:43.661Z,16.57
2022-10-02T07:58:17.850Z,16.56
2022-10-02T08:00:49.782Z,16.65
2022-10-02T08:03:24.437Z,16.62
2022-10-02T08:05:54.927Z,16.63
2022-10-02T08:08:28.763Z,16.62
2022-10-02T08:11:03.204Z,16.67
2022-10-02T08:13:36.934Z,16.67
2022-10-02T08:16:05.631Z,16.60
2022-10-02T08:18:38.715Z,16.59
2022-10-02T08:21:12.552Z,16.56
2022-10-02T08:23:45.462Z,16.61
2022-10-02T08:26:20.171Z,16.67
2022-10-02T08:28:54.885Z,16.75
2022-10-02T08:31:22.832Z,16.79
2022-10-02T08:33:51.920Z,16.77
2022-10-02T08:37:08.268Z,16.85
2022-10-02T08:40:02.401Z,16.83
2022-10-02T08:43:02.936Z,16.84
2022-10-02T08:46:12.344Z,16.82
2022-10-02T08:49:16.919Z,16.86
2022-10-02T08:52:09.319Z,16.88
2022-10-02T08:54:59.356Z,16.81
2022-10-02T08:57:56.660Z,16.83
2022-10-02T09:00:31.706Z,16.83
2022-10-02T09:03:46.704Z,16.80
2022-10-02T09:06:39.529Z,16.78
2022-10-02T09:09:53.300Z,16.75
2022-10-02T09:12:50.664Z,16.77
2022-10-02T09:15:22.826Z,16.62
2022-10-02T09:18:13.153Z,16.46
2022-10-02T09:21:11.436Z,16.31
2022-10-02T09:24:23.226Z,16.19
2022-10-02T09:27:26.587Z,16.02
2022-10-02T09:30:26.519Z,15.93
2022-10-02T09:33:27.556Z,15.84
2022-10-02T09:36:55.003Z,15.85
2022-10-02T09:39:57.426Z,15.78
2022-10-02T09:42:56.953Z,15.88
2022-10-02T09:46:01.098Z,15.87
2022-10-02T09:49:07.527Z,15.87
2022-10-02T09:52:17.489Z,15.98
2022-10-02T09:55:27.498Z,15.97
2022-10-02T09:58:24.651Z,15.99
2022-10-02T10:01:28.626Z,16.00
2022-10-02T10:04:33.864Z,16.02
2022-10-02T10:07:42.345Z,16.15
2022-10-02T10:10:32.811Z,16.26
2022-10-02T10:13:37.079Z,16.31
2022-10-02T10:16:45.776Z,16.35
2022-10-02T10:19:58.018Z,16.46
2022-10-02T10:23:02.027Z,16.46
2022-10-02T10:26:03.646Z,16.36
2022-10-02T10:29:08.329Z,16.27
2022-10-02T10:32:15.895Z,16.24
2022-10-02T10:35:15.552Z,16.33
2022-10-02T10:37:55.111Z,16.34
2022-10-02T10:40:31.619Z,16.35
2022-10-02T10:43:36.260Z,16.31
2022-10-02T10:46:42.004Z,16.37
2022-10-02T10:49:45.214Z,16.32
2022-10-02T10:52:27.837Z,16.31
2022-10-02T10:55:11.068Z,16.20
2022-10-02T10:57:56.326Z,16.20
2022-10-02T11:00:25.907Z,16.21
2022-10-02T11:03:23.872Z,16.23
2022-10-02T11:06:24.396Z,16.31
2022-10-02T11:09:31.362Z,16.73
2022-10-02T11:12:50.109Z,16.97
2022-10-02T11:15:56.235Z,17.09
2022-10-02T11:18:37.644Z,17.06
2022-10-02T11:21:23.289Z,16.98
2022-10-02T11:24:08.635Z,16.96
2022-10-02T11:26:51.838Z,17.14
2022-10-02T11:29:52.243Z,16.92
2022-10-02T11:32:48.619Z,16.74
2022-10-02T11:35:29.480Z,16.86
2022-10-02T11:38:22.685Z,17.07
2022-10-02T11:41:15.094Z,17.44
2022-10-02T11:44:04.572Z,17.54
2022-10-02T11:46:57.015Z,17.43
2022-10-02T11:49:50.622Z,17.34
2022-10-02T11:52:43.639Z,17.45
2022-10-02T11:55:37.608Z,17.43
2022-10-02T11:58:17.454Z,17.27
2022-10-02T12:01:10.721Z,17.21
2022-10-02T12:03:54.885Z,16.99
2022-10-02T12:06:40.028Z,16.93
2022-10-02T12:09:18.522Z,16.92
2022-10-02T12:11:56.993Z,16.68
2022-10-02T12:14:33.863Z,16.56
2022-10-02T12:17:14.389Z,16.56
2022-10-02T12:19:55.335Z,16.66
2022-10-02T12:22:30.605Z,16.74
2022-10-02T12:25:20.711Z,16.62
2022-10-02T12:28:00.377Z,16.56
2022-10-02T12:30:36.666Z,16.43
2022-10-02T12:33:21.912Z,16.31
2022-10-02T12:36:33.469Z,16.51
2022-10-02T12:39:16.748Z,16.67
2022-10-02T12:42:00.939Z,16.89
2022-10-02T12:45:00.975Z,16.86
2022-10-02T12:48:08.498Z,16.80
2022-10-02T12:51:05.569Z,16.81
2022-10-02T12:53:59.917Z,16.75
2022-10-02T12:57:00.927Z,16.50
2022-10-02T12:59:39.747Z,16.46
2022-10-02T13:03:07.369Z,16.37
2022-10-02T13:05:54.258Z,16.33
2022-10-02T13:08:38.855Z,16.22
2022-10-02T13:11:14.783Z,16.15
2022-10-02T13:14:03.311Z,16.21
2022-10-02T13:16:51.549Z,16.25
2022-10-02T13:19:29.880Z,16.26
2022-10-02T13:22:04.408Z,16.14
2022-10-02T13:24:58.210Z,16.01
2022-10-02T13:27:36.322Z,15.81
2022-10-02T13:30:16.976Z,15.79
2022-10-02T13:33:02.979Z,15.76
2022-10-02T13:35:55.497Z,15.81
2022-10-02T13:38:53.460Z,15.78
2022-10-02T13:41:33.813Z,15.74
2022-10-02T13:44:15.648Z,15.65
2022-10-02T13:47:00.551Z,15.70
2022-10-02T13:49:44.656Z,15.67
2022-10-02T13:52:20.611Z,15.71
2022-10-02T13:55:08.387Z,15.70
2022-10-02T13:57:57.559Z,15.65
2022-10-02T14:00:53.269Z,15.54
2022-10-02T14:03:35.177Z,15.50
2022-10-02T14:06:11.754Z,15.45
2022-10-02T14:09:02.728Z,15.41
2022-10-02T14:11:42.338Z,15.29
2022-10-02T14:14:23.284Z,15.32
2022-10-02T14:17:02.299Z,15.31
2022-10-02T14:19:56.155Z,15.36
2022-10-02T14:22:37.041Z,15.40
2022-10-02T14:25:27.461Z,15.54
2022-10-02T14:28:16.439Z,15.57
2022-10-02T14:31:02.550Z,15.60
2022-10-02T14:33:46.162Z,15.53
2022-10-02T14:36:23.536Z,15.44
2022-10-02T14:39:04.962Z,15.41
2022-10-02T14:41:55.739Z,15.37
2022-10-02T14:44:39.736Z,15.34
2022-10-02T14:47:34.979Z,15.31
2022-10-02T14:50:18.766Z,15.14
2022-10-02T14:53:15.942Z,15.09
2022-10-02T14:56:08.207Z,15.08
2022-10-02T14:58:48.416Z,14.99
2022-10-02T15:01:21.250Z,14.94
2022-10-02T15:04:22.319Z,14.90
2022-10-02T15:07:04.427Z,14.90
2022-10-02T15:09:40.299Z,14.84
2022-10-02T15:12:15.135Z,14.81
2022-10-02T15:14:53.015Z,14.72
2022-10-02T15:17:32.362Z,14.67
2022-10-02T15:20:06.031Z,14.63
2022-10-02T15:22:40.468Z,14.59
2022-10-02T15:25:18.137Z,14.52
2022-10-02T15:28:04.378Z,14.46
2022-10-02T15:30:50.199Z,14.41
2022-10-02T15:33:27.407Z,14.35
2022-10-02T15:36:26.681Z,14.30
2022-10-02T15:39:17.257Z,14.31
2022-10-02T15:41:49.069Z,14.19
2022-10-02T15:44:50.205Z,14.11
2022-10-02T15:47:35.042Z,14.08
2022-10-02T15:50:18.584Z,13.95
2022-10-02T15:52:58.781Z,13.95
2022-10-02T15:55:36.998Z,13.91
2022-10-02T15:58:28.320Z,13.88
2022-10-02T16:01:30.974Z,13.87
2022-10-02T16:04:11.448Z,13.78
2022-10-02T16:06:54.667Z,13.71
2022-10-02T16:09:46.003Z,13.65
2022-10-02T16:12:30.686Z,13.56
2022-10-02T16:15:10.098Z,13.54
2022-10-02T16:18:06.637Z,13.49
2022-10-02T16:20:58.407Z,13.53
2022-10-02T16:23:46.641Z,13.48
2022-10-02T16:26:29.674Z,13.41
2022-10-02T16:29:18.976Z,13.36
2022-10-02T16:32:04.688Z,13.35
2022-10-02T16:34:50.308Z,13.29
2022-10-02T16:37:24.598Z,13.31
2022-10-02T16:40:03.320Z,13.26
2022-10-02T16:42:40.046Z,13.21
2022-10-02T16:45:37.110Z,13.20
2022-10-02T16:48:10.141Z,13.13
2022-10-02T16:50:53.437Z,13.07
2022-10-02T16:53:28.048Z,13.03
2022-10-02T16:56:05.466Z,12.99
2022-10-02T16:58:45.220Z,12.98
2022-10-02T17:01:24.693Z,12.96
2022-10-02T17:04:18.047Z,12.93
2022-10-02T17:06:50.331Z,12.89
2022-10-02T17:09:22.611Z,12.84
2022-10-02T17:11:56.565Z,12.81
2022-10-02T17:14:36.119Z,12.78
2022-10-02T17:17:15.253Z,12.71
2022-10-02T17:19:50.255Z,12.69
2022-10-02T17:22:30.655Z,12.69
2022-10-02T17:25:07.840Z,12.65
2022-10-02T17:27:44.825Z,12.64
2022-10-02T17:30:19.170Z,12.55
2022-10-02T17:33:04.313Z,12.47
2022-10-02T17:35:50.683Z,12.46
2022-10-02T17:38:50.711Z,12.49
2022-10-02T17:41:34.139Z,12.46
2022-10-02T17:44:12.011Z,12.44
2022-10-02T17:47:19.603Z,12.34
2022-10-02T17:50:05.315Z,12.28
2022-10-02T17:52:38.693Z,12.26
2022-10-02T17:55:26.983Z,12.21
2022-10-02T17:58:09.406Z,12.24
2022-10-02T18:00:42.137Z,12.08
2022-10-02T18:03:34.423Z,12.08
2022-10-02T18:06:14.928Z,12.14
2022-10-02T18:09:14.793Z,12.31
2022-10-02T18:12:20.480Z,12.35
2022-10-02T18:15:15.097Z,12.41
2022-10-02T18:17:59.911Z,12.49
2022-10-02T18:20:34.182Z,12.52
2022-10-02T18:23:17.207Z,12.43
2022-10-02T18:26:18.068Z,12.32
2022-10-02T18:29:18.919Z,12.29
2022-10-02T18:32:03.083Z,12.23
2022-10-02T18:34:58.561Z,12.23
2022-10-02T18:37:48.455Z,12.17
2022-10-02T18:40:22.932Z,12.26
2022-10-02T18:43:13.015Z,12.28
2022-10-02T18:45:48.633Z,12.31
2022-10-02T18:48:37.397Z,12.29
2022-10-02T18:51:23.790Z,12.31
2022-10-02T18:54:12.035Z,12.33
2022-10-02T18:56:56.847Z,12.35
2022-10-02T18:59:37.324Z,12.31
2022-10-02T19:02:23.844Z,12.26
2022-10-02T19:05:12.819Z,12.28
2022-10-02T19:07:45.349Z,12.22
2022-10-02T19:10:24.103Z,12.18
2022-10-02T19:12:53.956Z,12.14
2022-10-02T19:15:24.536Z,12.11
2022-10-02T19:18:16.668Z,12.14
2022-10-02T19:20:51.770Z,12.05
2022-10-02T19:23:28.206Z,12.10
2022-10-02T19:26:00.914Z,12.13
2022-10-02T19:28:31.149Z,12.18
2022-10-02T19:31:02.037Z,12.17
2022-10-02T19:33:41.568Z,12.21
2022-10-02T19:36:16.013Z,12.23
2022-10-02T19:38:52.006Z,12.23
2022-10-02T19:41:20.741Z,12.25
2022-10-02T19:43:55.298Z,12.27
2022-10-02T19:46:35.421Z,12.30
2022-10-02T19:49:06.342Z,12.29
2022-10-02T19:51:43.062Z,12.28
2022-10-02T19:54:16.975Z,12.30
2022-10-02T19:56:46.099Z,12.27
2022-10-02T19:59:18.606Z,12.24
2022-10-02T20:01:51.777Z,12.18
2022-10-02T20:04:22.919Z,12.20
2022-10-02T20:06:55.439Z,12.13
2022-10-02T20:09:29.983Z,12.10
2022-10-02T20:12:04.544Z,12.07
2022-10-02T20:14:39.540Z,12.03
2022-10-02T20:17:10.036Z,12.03
2022-10-02T20:19:44.423Z,11.95
2022-10-02T20:22:32.259Z,11.90
2022-10-02T20:25:04.168Z,11.87
2022-10-02T20:27:39.222Z,11.97
2022-10-02T20:30:13.359Z,11.94
2022-10-02T20:32:46.047Z,11.87
2022-10-02T20:35:22.877Z,11.86
2022-10-02T20:37:55.075Z,11.90
2022-10-02T20:40:26.448Z,11.93
2022-10-02T20:42:56.842Z,11.94
2022-10-02T20:45:37.260Z,11.94
2022-10-02T20:48:55.669Z,11.92
2022-10-02T20:51:39.868Z,11.92
2022-10-02T20:54:41.225Z,11.90
2022-10-02T20:58:01.126Z,11.89
2022-10-02T21:00:41.105Z,11.80
2022-10-02T21:03:31.151Z,11.79
2022-10-02T21:06:39.423Z,11.77
2022-10-02T21:09:35.411Z,11.82
2022-10-02T21:12:45.551Z,11.77
2022-10-02T21:15:46.476Z,11.73
2022-10-02T21:18:41.897Z,11.72
2022-10-02T21:21:35.418Z,11.67
2022-10-02T21:24:32.783Z,11.60
2022-10-02T21:27:27.382Z,11.54
2022-10-02T21:30:12.617Z,11.50
2022-10-02T21:32:55.560Z,11.50
2022-10-02T21:35:36.642Z,11.48
2022-10-02T21:38:29.650Z,11.49
2022-10-02T21:41:39.941Z,11.55
2022-10-02T21:45:00.296Z,11.60
2022-10-02T21:47:59.171Z,11.54
2022-10-02T21:50:57.235Z,11.47
2022-10-02T21:54:12.739Z,11.48
2022-10-02T21:57:17.941Z,11.52
2022-10-02T22:00:09.870Z,11.51
2022-10-02T22:03:15.621Z,11.49
2022-10-02T22:06:21.110Z,11.49
2022-10-02T22:09:05.775Z,11.41
2022-10-02T22:11:45.003Z,11.38
2022-10-02T22:14:17.140Z,11.37
2022-10-02T22:16:53.251Z,11.33
2022-10-02T22:19:47.576Z,11.30
2022-10-02T22:22:31.008Z,11.27
2022-10-02T22:25:12.141Z,11.21
2022-10-02T22:27:59.523Z,11.17
2022-10-02T22:30:29.916Z,11.11
2022-10-02T22:33:20.079Z,11.08
2022-10-02T22:36:13.057Z,11.04
2022-10-02T22:38:46.290Z,11.07
2022-10-02T22:41:25.375Z,11.04
2022-10-02T22:43:55.804Z,11.07
2022-10-02T22:46:37.750Z,11.04
2022-10-02T22:49:19.896Z,11.01
2022-10-02T22:51:59.890Z,11.02
2022-10-02T22:54:38.673Z,10.98
2022-10-02T22:57:17.701Z,10.97
2022-10-02T22:59:51.479Z,10.94
2022-10-02T23:02:26.227Z,11.00
2022-10-02T23:05:03.371Z,11.01
2022-10-02T23:07:41.316Z,10.93
2022-10-02T23:10:21.114Z,10.92
2022-10-02T23:12:59.840Z,10.85
2022-10-02T23:15:44.768Z,10.75
2022-10-02T23:18:28.915Z,10.72
2022-10-02T23:21:05.071Z,10.64
2022-10-02T23:23:41.117Z,10.60
2022-10-02T23:26:13.378Z,10.55
2022-10-02T23:28:50.162Z,10.60
2022-10-02T23:31:20.998Z,10.58
2022-10-02T23:33:57.256Z,10.61
2022-10-02T23:36:33.256Z,10.57
2022-10-02T23:39:12.558Z,10.58
2022-10-02T23:41:46.944Z,10.57
2022-10-02T23:44:24.282Z,10.56
2022-10-02T23:47:34.217Z,10.54
2022-10-02T23:50:04.193Z,10.55
2022-10-02T23:53:07.897Z,10.49
2022-10-02T23:55:55.219Z,10.47
2022-10-02T23:58:44.109Z,10.48
